Archival Weather

Snohomish County (Paine Fld)

Everett, Washington (KPAE)

Report from: Tuesday, November 7, 2023 3:29 AM PST
Current time: Sunday, June 16, 2024 11:24 PM PDT

Current weather – Weather history – Daily summaries
Weather forecast

Present weatherLight rain
Temperature10.0°C (50.0°F)
Wind chill9.1°C (48.5°F)
Dew point8.9°C (48.0°F)
Winds 4 kts (2.1 m/s, 4.6 mph) West-Southwest (240°)
Visibility7 mi. (11.3 km)
Clouds Ceiling: Broken clouds 300 ft. (91 m)
Overcast 900 ft. (274 m)
Altimeter29.80 in.Hg (1009 mB)
Precipitiation0.02 in. (1 mm)
Relative humidity93 %
Density altitude-296 ft. (-90 m)
Remarks Fully automated report
Automated weather observing station with precipitation discriminator
Ceiling
Flight conditions Low Instrument Meteorological Conditions
Raw dataKPAE 071129Z AUTO 24004KT 7SM -RA BKN003 OVC009 10/09 A2980 RMK AO2 CIG 002V007 P0002 T01000089
An error has occurred. This application may no longer respond until reloaded. Reload 🗙